createdAt,value
2018-05-16T00:00:40.587Z,15.93
2018-05-16T00:01:50.408Z,15.96
2018-05-16T00:03:00.570Z,15.89
2018-05-16T00:04:10.713Z,15.95
2018-05-16T00:05:20.531Z,15.98
2018-05-16T00:06:30.596Z,15.95
2018-05-16T00:07:40.664Z,16
2018-05-16T00:08:50.755Z,16
2018-05-16T00:10:00.951Z,15.99
2018-05-16T00:11:10.767Z,15.84
2018-05-16T00:12:20.597Z,15.93
2018-05-16T00:13:30.693Z,15.86
2018-05-16T00:14:40.768Z,15.81
2018-05-16T00:15:50.886Z,15.91
2018-05-16T00:17:00.961Z,15.74
2018-05-16T00:18:11.123Z,15.75
2018-05-16T00:19:21.291Z,15.77
2018-05-16T00:20:31.119Z,15.74
2018-05-16T00:21:41.194Z,15.63
2018-05-16T00:22:51.250Z,15.68
2018-05-16T00:24:01.069Z,15.67
2018-05-16T00:25:10.893Z,15.71
2018-05-16T00:26:20.981Z,15.65
2018-05-16T00:27:31.102Z,15.67
2018-05-16T00:28:41.184Z,15.7
2018-05-16T00:29:51.249Z,15.65
2018-05-16T00:31:01.054Z,15.81
2018-05-16T00:32:11.121Z,15.71
2018-05-16T00:33:21.238Z,15.78
2018-05-16T00:34:31.045Z,15.75
2018-05-16T00:35:41.131Z,15.84
2018-05-16T00:36:50.965Z,15.73
2018-05-16T00:38:00.769Z,15.77
2018-05-16T00:39:10.848Z,15.77
2018-05-16T00:40:20.667Z,15.83
2018-05-16T00:41:30.742Z,15.83
2018-05-16T00:42:40.561Z,15.86
2018-05-16T00:43:50.383Z,15.75
2018-05-16T00:45:00.458Z,15.75
2018-05-16T00:46:10.272Z,15.81
2018-05-16T00:47:20.347Z,15.8
2018-05-16T00:48:30.150Z,15.95
2018-05-16T00:49:40.205Z,15.88
2018-05-16T00:50:50.281Z,16
2018-05-16T00:52:00.353Z,15.99
2018-05-16T00:53:10.445Z,15.91
2018-05-16T00:54:20.503Z,16.07
2018-05-16T00:55:30.588Z,16.02
2018-05-16T00:56:40.663Z,16.04
2018-05-16T00:57:50.736Z,16.1
2018-05-16T00:59:00.558Z,16.1
2018-05-16T01:00:10.701Z,16.08
2018-05-16T01:01:20.780Z,16.13
2018-05-16T01:02:30.847Z,16.16
2018-05-16T01:03:40.908Z,16.16
2018-05-16T01:04:50.993Z,16.14
2018-05-16T01:06:01.069Z,16.26
2018-05-16T01:07:10.882Z,16.21
2018-05-16T01:08:21.003Z,16.25
2018-05-16T01:09:31.171Z,16.29
2018-05-16T01:10:41.247Z,16.27
2018-05-16T01:11:51.054Z,16.29
2018-05-16T01:13:00.875Z,16.21
2018-05-16T01:14:10.941Z,16.21
2018-05-16T01:15:21.018Z,16.26
2018-05-16T01:16:30.828Z,16.26
2018-05-16T01:17:40.942Z,16.25
2018-05-16T01:18:50.753Z,16.27
2018-05-16T01:20:00.600Z,16.3
2018-05-16T01:21:10.411Z,16.26
2018-05-16T01:22:20.489Z,16.26
2018-05-16T01:23:30.556Z,16.3
2018-05-16T01:24:40.112Z,16.3
2018-05-16T01:25:50.208Z,16.3
2018-05-16T01:27:00.297Z,16.21
2018-05-16T01:28:09.857Z,16.3
2018-05-16T01:29:19.667Z,16.26
2018-05-16T01:30:29.741Z,16.29
2018-05-16T01:31:39.662Z,16.3
2018-05-16T01:32:49.722Z,16.29
2018-05-16T01:33:59.271Z,16.3
2018-05-16T01:35:09.360Z,16.25
2018-05-16T01:36:19.182Z,16.34
2018-05-16T01:37:29.308Z,16.33
2018-05-16T01:38:39.120Z,16.36
2018-05-16T01:39:48.911Z,16.44
2018-05-16T01:40:59.085Z,16.45
2018-05-16T01:42:08.912Z,16.39
2018-05-16T01:43:19.039Z,16.39
2018-05-16T01:44:29.107Z,16.4
2018-05-16T01:45:38.943Z,16.44
2018-05-16T01:46:49.035Z,16.4
2018-05-16T01:47:58.946Z,16.4
2018-05-16T01:49:09.035Z,16.33
2018-05-16T01:50:19.104Z,16.26
2018-05-16T01:51:29.197Z,16.22
2018-05-16T01:52:39.281Z,16.27
2018-05-16T01:53:49.090Z,16.3
2018-05-16T01:54:58.911Z,16.26
2018-05-16T01:56:09.000Z,16.18
2018-05-16T01:57:18.814Z,16.13
2018-05-16T01:58:28.619Z,16.16
2018-05-16T01:59:38.443Z,16.1
2018-05-16T02:00:48.526Z,16.13
2018-05-16T02:01:58.611Z,16.11
2018-05-16T02:03:08.683Z,16.1
2018-05-16T02:04:18.224Z,16
2018-05-16T02:05:28.293Z,15.98
2018-05-16T02:06:37.948Z,15.96
2018-05-16T02:07:48.019Z,15.88
2018-05-16T02:08:58.079Z,15.88
2018-05-16T02:10:08.149Z,15.91
2018-05-16T02:11:18.226Z,15.88
2018-05-16T02:12:28.040Z,15.86
2018-05-16T02:13:38.115Z,15.8
2018-05-16T02:14:48.197Z,15.86
2018-05-16T02:15:58.258Z,15.78
2018-05-16T02:17:07.803Z,15.86
2018-05-16T02:18:17.867Z,15.81
2018-05-16T02:19:27.944Z,15.81
2018-05-16T02:20:38.021Z,15.83
2018-05-16T02:21:48.092Z,15.78
2018-05-16T02:22:58.176Z,15.74
2018-05-16T02:24:08.302Z,15.74
2018-05-16T02:25:18.376Z,15.74
2018-05-16T02:26:27.936Z,15.78
2018-05-16T02:27:38.043Z,15.86
2018-05-16T02:28:48.117Z,15.8
2018-05-16T02:29:58.202Z,15.77
2018-05-16T02:31:08.045Z,15.78
2018-05-16T02:32:17.866Z,15.88
2018-05-16T02:33:27.960Z,15.73
2018-05-16T02:34:38.023Z,15.71
2018-05-16T02:35:48.155Z,15.73
2018-05-16T02:36:57.994Z,15.77
2018-05-16T02:38:08.081Z,15.83
2018-05-16T02:39:18.156Z,15.73
2018-05-16T02:40:28.227Z,15.71
2018-05-16T02:41:38.316Z,15.77
2018-05-16T02:42:48.379Z,15.81
2018-05-16T02:43:58.453Z,15.75
2018-05-16T02:45:08.291Z,15.75
2018-05-16T02:46:18.099Z,15.77
2018-05-16T02:47:28.373Z,15.71
2018-05-16T02:48:38.277Z,15.78
2018-05-16T02:49:48.097Z,15.77
2018-05-16T02:50:58.167Z,15.65
2018-05-16T02:52:07.997Z,15.65
2018-05-16T02:53:18.091Z,15.63
2018-05-16T02:54:28.316Z,15.65
2018-05-16T02:55:38.503Z,15.65
2018-05-16T02:56:48.580Z,15.65
2018-05-16T02:57:58.663Z,15.59
2018-05-16T02:59:08.469Z,15.56
2018-05-16T03:00:18.679Z,15.55
2018-05-16T03:01:28.766Z,15.58
2018-05-16T03:02:38.849Z,15.6
2018-05-16T03:34:13.800Z,13.51
2018-05-16T03:35:23.599Z,13.47
2018-05-16T03:36:33.743Z,13.48
2018-05-16T03:37:43.816Z,13.54
2018-05-16T03:38:53.894Z,13.65
2018-05-16T03:40:03.999Z,13.68
2018-05-16T03:41:14.056Z,13.72
2018-05-16T03:42:23.852Z,13.9
2018-05-16T03:43:33.408Z,14.02
2018-05-16T03:44:43.480Z,14.21
2018-05-16T03:45:53.593Z,14.34
2018-05-16T03:47:03.680Z,14.6
2018-05-16T03:48:13.765Z,14.66
2018-05-16T03:49:23.836Z,14.85
2018-05-16T03:50:33.915Z,15.01
2018-05-16T03:51:43.788Z,15.13
2018-05-16T03:52:53.874Z,15.15
2018-05-16T03:54:03.956Z,15.45
2018-05-16T03:55:13.763Z,15.53
2018-05-16T03:56:23.832Z,15.62
2018-05-16T03:57:33.933Z,15.68
2018-05-16T03:58:43.751Z,15.77
2018-05-16T03:59:53.842Z,15.93
2018-05-16T04:01:03.918Z,15.98
2018-05-16T04:02:14.140Z,16.02
2018-05-16T04:03:24.359Z,16.13
2018-05-16T04:04:34.427Z,16.13
2018-05-16T04:05:44.516Z,16.21
2018-05-16T04:06:54.603Z,16.26
2018-05-16T04:08:04.707Z,16.26
2018-05-16T04:09:14.829Z,16.26
2018-05-16T04:10:24.901Z,16.33
2018-05-16T04:11:34.993Z,16.33
2018-05-16T04:12:45.067Z,16.32
2018-05-16T04:13:55.164Z,16.47
2018-05-16T04:15:05.245Z,16.47
2018-05-16T04:16:15.330Z,16.49
2018-05-16T04:17:25.413Z,16.55
2018-05-16T04:18:35.216Z,16.58
2018-05-16T04:19:45.022Z,16.65
2018-05-16T04:20:55.111Z,16.72
2018-05-16T04:22:05.200Z,16.72
2018-05-16T04:23:15.288Z,16.77
2018-05-16T04:24:25.370Z,16.88
2018-05-16T04:25:35.437Z,16.92
2018-05-16T04:26:45.512Z,17.05
2018-05-16T04:27:55.334Z,17.09
2018-05-16T04:29:05.406Z,17.31
2018-05-16T04:30:15.512Z,17.38
2018-05-16T04:31:25.580Z,17.52
2018-05-16T04:32:35.681Z,17.63
2018-05-16T04:33:45.611Z,17.98
2018-05-16T04:34:55.697Z,18.17
2018-05-16T04:36:05.764Z,18.32
2018-05-16T04:37:15.853Z,18.69
2018-05-16T04:38:25.930Z,19.09
2018-05-16T04:39:35.751Z,19.56
2018-05-16T04:40:45.606Z,19.82
2018-05-16T04:41:55.762Z,20.27
2018-05-16T04:43:05.840Z,20.78
2018-05-16T04:44:15.955Z,21.62
2018-05-16T04:45:25.764Z,22.3
2018-05-16T04:46:35.827Z,23.19
2018-05-16T04:47:45.650Z,23.92
2018-05-16T04:48:55.732Z,24.78
2018-05-16T04:50:05.807Z,25.02
2018-05-16T04:51:15.984Z,25.48
2018-05-16T04:52:25.546Z,25.62
2018-05-16T04:53:35.731Z,26.12
2018-05-16T04:54:45.798Z,26.47
2018-05-16T04:55:55.910Z,26.78
2018-05-16T04:57:06.003Z,27.01
2018-05-16T04:58:16.097Z,27.38
2018-05-16T04:59:26.179Z,27.62
2018-05-16T05:00:36.252Z,27.84
2018-05-16T05:01:45.549Z,27.99
2018-05-16T05:02:55.384Z,28.01
2018-05-16T05:04:05.202Z,28.03
2018-05-16T05:05:15.023Z,27.99
2018-05-16T05:06:24.842Z,27.96
2018-05-16T05:07:34.910Z,28.05
2018-05-16T05:08:44.980Z,28.18
2018-05-16T05:09:54.891Z,28.33
2018-05-16T05:11:04.958Z,28.54
2018-05-16T05:12:14.520Z,28.72
2018-05-16T05:13:24.649Z,28.88
2018-05-16T05:14:34.742Z,29.02
2018-05-16T05:15:44.821Z,29.06
2018-05-16T05:16:54.904Z,28.7
2018-05-16T05:18:04.987Z,27.45
2018-05-16T05:19:15.332Z,26.93
2018-05-16T05:20:25.158Z,25.86
2018-05-16T05:21:34.713Z,25.14
2018-05-16T05:22:44.815Z,24.48
2018-05-16T05:23:54.978Z,24.07
2018-05-16T05:25:04.869Z,24.45
2018-05-16T05:26:14.679Z,24.3
2018-05-16T05:27:24.762Z,24.11
2018-05-16T05:28:34.565Z,24.3
2018-05-16T05:29:44.646Z,25.29
2018-05-16T05:30:54.737Z,25.7
2018-05-16T05:32:04.836Z,26.16
2018-05-16T05:33:14.669Z,26.34
2018-05-16T05:34:24.743Z,26.64
2018-05-16T05:35:34.820Z,27.11
2018-05-16T05:36:44.971Z,27.53
2018-05-16T05:37:54.897Z,27.83
2018-05-16T05:39:04.989Z,27.04
2018-05-16T05:40:15.096Z,26.9
2018-05-16T05:41:25.001Z,26.39
2018-05-16T05:42:34.865Z,25.86
2018-05-16T05:43:44.951Z,25.47
2018-05-16T05:44:55.041Z,25.08
2018-05-16T05:46:05.124Z,24.86
2018-05-16T05:47:15.225Z,24.46
2018-05-16T05:48:25.073Z,24.04
2018-05-16T05:49:34.639Z,23.6
2018-05-16T05:50:44.714Z,23.24
2018-05-16T05:51:54.812Z,22.94
2018-05-16T05:53:04.910Z,22.69
2018-05-16T05:54:15.046Z,22.49
2018-05-16T05:55:24.858Z,22.27
2018-05-16T05:56:34.764Z,22.26
2018-05-16T05:57:44.318Z,22.18
2018-05-16T05:58:54.404Z,22.07
2018-05-16T06:00:04.431Z,21.97
2018-05-16T06:01:14.466Z,21.94
2018-05-16T06:02:24.653Z,21.85
2018-05-16T06:03:34.740Z,21.9
2018-05-16T06:04:44.818Z,21.89
2018-05-16T06:05:54.946Z,21.68
2018-05-16T06:07:04.769Z,21.77
2018-05-16T06:08:14.851Z,21.76
2018-05-16T06:09:24.928Z,21.73
2018-05-16T06:10:35.028Z,21.7
2018-05-16T06:11:45.109Z,21.68
2018-05-16T06:12:55.313Z,21.76
2018-05-16T06:14:05.386Z,21.7
2018-05-16T06:15:15.466Z,21.61
2018-05-16T06:16:25.283Z,21.59
2018-05-16T06:17:35.403Z,21.48
2018-05-16T06:18:45.230Z,21.49
2018-05-16T06:19:55.633Z,21.52
2018-05-16T06:21:05.396Z,21.53
2018-05-16T06:22:15.471Z,21.43
2018-05-16T06:23:25.354Z,21.43
2018-05-16T06:24:35.240Z,21.52
2018-05-16T06:25:45.324Z,21.58
2018-05-16T06:26:55.516Z,21.67
2018-05-16T06:28:05.767Z,21.82
2018-05-16T06:29:15.843Z,21.96
2018-05-16T06:30:25.933Z,22.12
2018-05-16T06:31:35.999Z,22.27
2018-05-16T06:32:46.325Z,22.45
2018-05-16T06:33:56.689Z,22.57
2018-05-16T06:35:06.770Z,22.75
2018-05-16T06:36:16.901Z,22.89
2018-05-16T06:37:26.767Z,23.09
2018-05-16T06:38:36.849Z,23.28
2018-05-16T06:39:46.939Z,23.52
2018-05-16T06:40:57.053Z,23.67
2018-05-16T06:42:07.140Z,23.96
2018-05-16T06:43:17.244Z,23.96
2018-05-16T06:44:27.072Z,24.18
2018-05-16T06:45:36.897Z,24.27
2018-05-16T06:46:47.117Z,24.29
2018-05-16T06:47:57.210Z,24.34
2018-05-16T06:49:07.294Z,24.18
2018-05-16T06:50:17.371Z,24.14
2018-05-16T06:51:27.212Z,24
2018-05-16T06:52:37.041Z,24.09
2018-05-16T06:53:47.125Z,24.11
2018-05-16T06:54:57.220Z,24.3
2018-05-16T06:56:07.320Z,24.46
2018-05-16T06:57:17.408Z,24.8
2018-05-16T06:58:27.542Z,24.93
2018-05-16T06:59:37.360Z,25.14
2018-05-16T07:00:47.422Z,25.44
2018-05-16T07:01:57.518Z,25.59
2018-05-16T07:03:07.631Z,25.99
2018-05-16T07:04:17.872Z,25.99
2018-05-16T07:05:27.693Z,26.06
2018-05-16T07:06:37.775Z,26.12
2018-05-16T07:07:47.844Z,26.09
2018-05-16T07:08:57.952Z,26.01
2018-05-16T07:10:07.772Z,26.06
2018-05-16T07:11:17.592Z,26.03
2018-05-16T07:12:27.688Z,26.01
2018-05-16T07:13:38.082Z,26.19
2018-05-16T07:14:48.172Z,26.32
2018-05-16T07:15:58.266Z,26.31
2018-05-16T07:17:08.364Z,26.16
2018-05-16T07:18:18.457Z,26.09
2018-05-16T07:19:28.543Z,26.03
2018-05-16T07:20:38.099Z,25.79
2018-05-16T07:21:48.225Z,25.51
2018-05-16T07:22:58.514Z,25.14
2018-05-16T07:24:08.612Z,24.86
2018-05-16T07:25:18.690Z,24.9
2018-05-16T07:26:28.243Z,24.97
2018-05-16T07:27:38.048Z,25.11
2018-05-16T07:28:48.134Z,25.42
2018-05-16T07:29:58.225Z,25.64
2018-05-16T07:31:08.306Z,25.84
2018-05-16T07:32:18.420Z,26.26
2018-05-16T07:33:28.424Z,26.59
2018-05-16T07:34:38.243Z,26.86
2018-05-16T07:35:48.314Z,27.08
2018-05-16T07:36:58.404Z,26.94
2018-05-16T07:38:08.487Z,26.96
2018-05-16T07:39:18.357Z,26.68
2018-05-16T07:40:27.939Z,26.81
2018-05-16T07:41:38.010Z,26.84
2018-05-16T07:42:48.089Z,26.99
2018-05-16T07:43:58.161Z,27.11
2018-05-16T07:45:07.722Z,27.23
2018-05-16T07:46:17.858Z,27.46
2018-05-16T07:47:27.750Z,27.66
2018-05-16T07:48:37.902Z,27.45
2018-05-16T07:49:47.990Z,27.33
2018-05-16T07:50:58.176Z,26.96
2018-05-16T07:52:08.259Z,26.74
2018-05-16T07:53:18.692Z,26.67
2018-05-16T07:54:28.782Z,26.49
2018-05-16T07:55:38.613Z,26.45
2018-05-16T07:56:48.441Z,26.27
2018-05-16T07:57:58.642Z,26.61
2018-05-16T07:59:09.183Z,26.82
2018-05-16T08:00:19.006Z,26.9
2018-05-16T08:01:29.097Z,26.99
2018-05-16T08:02:39.180Z,27.05
2018-05-16T08:03:49.256Z,27.09
2018-05-16T08:04:59.336Z,27.08
2018-05-16T08:06:09.425Z,27.49
2018-05-16T08:07:20.176Z,27.59
2018-05-16T08:08:30.573Z,27.43
2018-05-16T08:09:40.670Z,27.09
2018-05-16T08:10:50.801Z,26.82
2018-05-16T08:12:00.333Z,26.38
2018-05-16T08:13:10.132Z,26.15
2018-05-16T08:14:19.943Z,26
2018-05-16T08:15:30.165Z,25.79
2018-05-16T08:16:40.740Z,25.64
2018-05-16T08:17:50.832Z,25.6
2018-05-16T08:19:00.770Z,25.67
2018-05-16T08:20:10.858Z,25.6
2018-05-16T08:21:21.167Z,25.54
2018-05-16T08:22:31.298Z,25.6
2018-05-16T08:23:41.675Z,25.88
2018-05-16T08:24:51.493Z,26.11
2018-05-16T08:26:01.374Z,26.26
2018-05-16T08:27:12.106Z,26.15
2018-05-16T08:28:22.708Z,26.22
2018-05-16T08:29:32.270Z,26.39
2018-05-16T08:30:42.357Z,26.27
2018-05-16T08:31:52.485Z,26.19
2018-05-16T08:33:02.585Z,26
2018-05-16T08:34:12.778Z,25.93
2018-05-16T08:35:22.854Z,26
2018-05-16T08:36:33.148Z,26.17
2018-05-16T08:37:43.316Z,26.24
2018-05-16T08:38:53.151Z,26.17
2018-05-16T08:40:03.235Z,26.07
2018-05-16T08:41:13.310Z,26.04
2018-05-16T08:42:23.205Z,26.03
2018-05-16T08:43:33.357Z,25.84
2018-05-16T08:44:43.442Z,25.69
2018-05-16T08:45:53.618Z,25.64
2018-05-16T08:47:03.692Z,25.56
2018-05-16T08:48:13.886Z,25.48
2018-05-16T08:49:24.148Z,25.44
2018-05-16T08:50:34.295Z,25.47
2018-05-16T08:51:44.360Z,25.54
2018-05-16T08:52:54.504Z,25.63
2018-05-16T08:54:04.624Z,26.15
2018-05-16T08:55:14.777Z,26.31
2018-05-16T08:56:24.843Z,26.38
2018-05-16T08:57:34.670Z,26.22
2018-05-16T08:58:44.748Z,26.22
2018-05-16T08:59:54.858Z,26.19
2018-05-16T09:01:04.973Z,26.22
2018-05-16T09:02:15.284Z,26.31
2018-05-16T09:03:26.703Z,26.44
2018-05-16T09:04:39.161Z,26.67
2018-05-16T09:05:51.864Z,26.63
2018-05-16T09:07:03.735Z,26.42
2018-05-16T09:08:13.553Z,26.41
2018-05-16T09:09:23.638Z,26.44
2018-05-16T09:10:33.201Z,26.45
2018-05-16T09:11:43.048Z,26.39
2018-05-16T09:12:53.201Z,26.41
2018-05-16T09:14:03.054Z,26.39
2018-05-16T09:15:13.167Z,26.27
2018-05-16T09:16:23.270Z,26.26
2018-05-16T09:17:33.366Z,26.27
2018-05-16T09:18:43.471Z,26.32
2018-05-16T09:19:53.369Z,26.5
2018-05-16T09:21:03.473Z,26.97
2018-05-16T09:22:13.584Z,27.38
2018-05-16T09:23:23.671Z,27.87
2018-05-16T09:24:33.495Z,27.98
2018-05-16T09:25:43.675Z,27.99
2018-05-16T09:26:53.768Z,27.76
2018-05-16T09:28:03.933Z,27.71
2018-05-16T09:29:14.045Z,27.61
2018-05-16T09:30:24.180Z,27.69
2018-05-16T09:31:34.294Z,27.8
2018-05-16T09:32:44.380Z,28.03
2018-05-16T09:33:54.485Z,28.18
2018-05-16T09:35:04.305Z,28.42
2018-05-16T09:36:14.393Z,28.61
2018-05-16T09:37:24.524Z,28.83
2018-05-16T09:38:34.373Z,28.95
2018-05-16T09:39:44.469Z,28.72
2018-05-16T09:40:54.583Z,28.67
2018-05-16T09:42:04.685Z,28.48
2018-05-16T09:43:14.798Z,28.48
2018-05-16T09:44:24.905Z,28.54
2018-05-16T09:45:35.086Z,28.75
2018-05-16T09:46:45.368Z,28.97
2018-05-16T09:47:55.482Z,28.88
2018-05-16T09:49:05.597Z,28.63
2018-05-16T09:50:15.694Z,28.82
2018-05-16T09:51:25.938Z,28.73
2018-05-16T09:52:36.174Z,28.54
2018-05-16T09:53:46.273Z,28.2
2018-05-16T09:54:56.371Z,28.12
2018-05-16T09:56:06.511Z,27.87
2018-05-16T09:57:16.584Z,28.02
2018-05-16T09:58:26.691Z,27.89
2018-05-16T09:59:36.838Z,27.87
2018-05-16T10:00:46.657Z,27.66
2018-05-16T10:01:56.756Z,27.65
2018-05-16T10:03:06.849Z,27.83
2018-05-16T10:04:16.969Z,27.83
2018-05-16T10:05:27.147Z,27.79
2018-05-16T10:06:37.244Z,27.68
2018-05-16T10:07:47.334Z,27.66
2018-05-16T10:08:57.474Z,27.51
2018-05-16T10:10:07.543Z,27.52
2018-05-16T10:11:17.371Z,27.62
2018-05-16T10:12:27.227Z,27.72
2018-05-16T10:13:37.059Z,27.84
2018-05-16T10:14:46.899Z,28.01
2018-05-16T10:15:56.982Z,28.08
2018-05-16T10:17:07.367Z,28.16
2018-05-16T10:18:17.558Z,28.35
2018-05-16T10:19:27.383Z,28.3
2018-05-16T10:20:37.482Z,28.35
2018-05-16T10:21:47.567Z,28.48
2018-05-16T10:22:57.708Z,28.67
2018-05-16T10:24:07.784Z,28.61
2018-05-16T10:25:17.970Z,28.67
2018-05-16T10:26:28.067Z,28.64
2018-05-16T10:27:37.939Z,28.42
2018-05-16T10:28:48.039Z,28.38
2018-05-16T10:29:57.859Z,28.27
2018-05-16T10:31:07.725Z,28.38
2018-05-16T10:32:17.889Z,28.78
2018-05-16T10:33:27.979Z,28.82
2018-05-16T10:34:38.431Z,28.83
2018-05-16T10:35:48.192Z,29.02
2018-05-16T10:36:58.274Z,28.78
2018-05-16T10:38:08.371Z,28.46
2018-05-16T10:39:18.473Z,28.11
2018-05-16T10:40:28.320Z,27.98
2018-05-16T10:41:38.730Z,28.24
2018-05-16T10:42:48.821Z,28.42
2018-05-16T10:43:58.655Z,28.72
2018-05-16T10:45:08.221Z,28.94
2018-05-16T10:46:18.341Z,29.2
2018-05-16T10:47:28.422Z,29.39
2018-05-16T10:48:38.516Z,29.35
2018-05-16T10:49:48.598Z,29.6
2018-05-16T10:50:58.701Z,29.77
2018-05-16T10:52:08.623Z,29.98
2018-05-16T10:53:18.866Z,29.97
2018-05-16T10:54:28.695Z,29.72
2018-05-16T10:55:38.265Z,29.47
2018-05-16T10:56:48.373Z,29.18
2018-05-16T10:57:58.470Z,28.91
2018-05-16T10:59:08.566Z,28.83
2018-05-16T11:00:18.660Z,29.17
2018-05-16T11:01:28.765Z,29.67
2018-05-16T11:02:38.622Z,30.13
2018-05-16T11:03:48.714Z,30.34
2018-05-16T11:04:59.125Z,30.47
2018-05-16T11:06:08.961Z,30.57
2018-05-16T11:07:18.816Z,30.52
2018-05-16T11:08:28.915Z,30.1
2018-05-16T11:09:39.095Z,29.6
2018-05-16T11:10:49.196Z,29.79
2018-05-16T11:11:59.324Z,29.97
2018-05-16T11:13:09.204Z,30.11
2018-05-16T11:14:19.311Z,30.02
2018-05-16T11:15:29.130Z,30.16
2018-05-16T11:16:38.957Z,30.11
2018-05-16T11:17:49.056Z,30.09
2018-05-16T11:18:59.207Z,30.1
2018-05-16T11:20:09.316Z,30.16
2018-05-16T11:21:19.507Z,30.32
2018-05-16T11:22:29.500Z,30.48
2018-05-16T11:23:39.588Z,30.73
2018-05-16T11:24:49.472Z,30.78
2018-05-16T11:25:59.578Z,30.86
2018-05-16T11:27:09.685Z,31.06
2018-05-16T11:28:19.777Z,31.16
2018-05-16T11:29:29.601Z,31.15
2018-05-16T11:30:39.748Z,31.18
2018-05-16T11:31:49.845Z,31.22
2018-05-16T11:32:59.704Z,30.82
2018-05-16T11:34:09.832Z,30.26
2018-05-16T11:35:19.933Z,29.98
2018-05-16T11:36:30.157Z,29.77
2018-05-16T11:37:40.374Z,29.28
2018-05-16T11:38:49.696Z,29.13
2018-05-16T11:39:59.816Z,28.72
2018-05-16T11:41:09.660Z,28.91
2018-05-16T11:42:19.877Z,29.05
2018-05-16T11:43:29.832Z,29.11
2018-05-16T11:44:39.942Z,29.17
2018-05-16T11:45:49.791Z,29.2
2018-05-16T11:46:59.625Z,29.15
2018-05-16T11:48:09.197Z,29.1
2018-05-16T11:49:19.337Z,28.82
2018-05-16T11:50:29.439Z,28.68
2018-05-16T11:51:39.534Z,28.7
2018-05-16T11:52:49.629Z,28.7
2018-05-16T11:53:59.768Z,28.17
2018-05-16T11:55:09.870Z,27.65
2018-05-16T11:56:19.966Z,27.62
2018-05-16T11:57:30.074Z,27.93
2018-05-16T11:58:40.161Z,28.23
2018-05-16T11:59:50.260Z,28.27
2018-05-16T12:01:00.349Z,28.45
2018-05-16T12:02:10.429Z,28.67
2018-05-16T12:03:20.529Z,28.75
2018-05-16T12:04:30.366Z,28.9
2018-05-16T12:05:40.180Z,28.98
2018-05-16T12:06:50.012Z,29.13
2018-05-16T12:08:00.085Z,29.06
2018-05-16T12:09:09.935Z,29.23
2018-05-16T12:10:20.360Z,29.15
2018-05-16T12:11:30.515Z,28.86
2018-05-16T12:12:40.578Z,28.94
2018-05-16T12:13:50.413Z,28.55
2018-05-16T12:15:00.917Z,28.76
2018-05-16T12:16:11.066Z,28.88
2018-05-16T12:17:21.180Z,28.91
2018-05-16T12:18:31.268Z,29.05
2018-05-16T12:19:41.109Z,29.29
2018-05-16T12:20:51.207Z,29.4
2018-05-16T12:22:01.305Z,29.55
2018-05-16T12:23:11.417Z,29.61
2018-05-16T12:24:21.535Z,29.77
2018-05-16T12:25:31.615Z,30.1
2018-05-16T12:26:41.688Z,30.25
2018-05-16T12:27:51.511Z,30.42
2018-05-16T12:29:01.983Z,30.47
2018-05-16T12:30:12.418Z,30.59
2018-05-16T12:31:22.509Z,30.71
2018-05-16T12:32:32.603Z,30.93
2018-05-16T12:33:42.435Z,30.84
2018-05-16T12:34:52.580Z,30.35
2018-05-16T12:36:02.246Z,30.09
2018-05-16T12:37:12.328Z,30.06
2018-05-16T12:38:22.438Z,30.03
2018-05-16T12:39:32.543Z,29.95
2018-05-16T12:40:42.693Z,29.89
2018-05-16T12:41:52.520Z,29.43
2018-05-16T12:43:02.600Z,29.26
2018-05-16T12:44:12.430Z,29.33
2018-05-16T12:45:22.520Z,29.28
2018-05-16T12:46:32.844Z,28.88
2018-05-16T12:47:43.101Z,28.55
2018-05-16T12:48:53.185Z,28.42
2018-05-16T12:50:03.039Z,28.82
2018-05-16T12:51:13.146Z,29.1
2018-05-16T12:52:22.814Z,28.8
2018-05-16T12:53:32.980Z,28.64
2018-05-16T12:54:42.810Z,28.43
2018-05-16T12:55:53.175Z,28.2
2018-05-16T12:57:03.284Z,28.17
2018-05-16T12:58:13.442Z,28.14
2018-05-16T12:59:23.557Z,28.28
2018-05-16T13:00:33.652Z,28.88
2018-05-16T13:01:43.784Z,29.39
2018-05-16T13:02:53.878Z,29.63
2018-05-16T13:04:04.103Z,29.97
2018-05-16T13:05:13.995Z,29.81
2018-05-16T13:06:23.850Z,29.54
2018-05-16T13:07:33.669Z,29.55
2018-05-16T13:08:44.017Z,29.3
2018-05-16T13:09:54.166Z,28.88
2018-05-16T13:11:04.263Z,28.45
2018-05-16T13:12:14.096Z,28.2
2018-05-16T13:13:24.203Z,27.71
2018-05-16T13:14:34.305Z,27.43
2018-05-16T13:15:44.464Z,27.51
2018-05-16T13:16:54.567Z,27.65
2018-05-16T13:18:04.888Z,27.74
2018-05-16T13:19:15.261Z,27.89
2018-05-16T13:20:25.398Z,27.98
2018-05-16T13:21:35.787Z,27.89
2018-05-16T13:22:46.140Z,27.81
2018-05-16T13:23:56.251Z,27.71
2018-05-16T13:25:06.348Z,27.69
2018-05-16T13:26:16.170Z,27.69
2018-05-16T13:27:26.009Z,27.99
2018-05-16T13:28:36.110Z,28.17
2018-05-16T13:29:46.204Z,28.21
2018-05-16T13:30:56.301Z,28.2
2018-05-16T13:32:06.411Z,28.12
2018-05-16T13:33:16.516Z,28.06
2018-05-16T13:34:26.335Z,28.03
2018-05-16T13:35:36.523Z,28.03
2018-05-16T13:36:46.446Z,28.17
2018-05-16T13:37:56.634Z,28.2
2018-05-16T13:39:06.867Z,28.28
2018-05-16T13:40:17.097Z,28.28
2018-05-16T13:41:27.212Z,28.31
2018-05-16T13:42:37.322Z,28.31
2018-05-16T13:43:47.167Z,28.12
2018-05-16T13:44:57.350Z,27.9
2018-05-16T13:46:07.451Z,27.75
2018-05-16T13:47:17.552Z,27.45
2018-05-16T13:48:27.663Z,27.12
2018-05-16T13:49:37.778Z,27.38
2018-05-16T13:50:47.874Z,27.51
2018-05-16T13:51:58.005Z,27.48
2018-05-16T13:53:07.842Z,27.57
2018-05-16T13:54:17.964Z,27.74
2018-05-16T13:55:28.052Z,27.81
2018-05-16T13:56:38.199Z,27.71
2018-05-16T13:57:48.279Z,27.48
2018-05-16T13:58:58.382Z,27.33
2018-05-16T14:00:08.532Z,27.09
2018-05-16T14:01:18.897Z,27.01
2018-05-16T14:02:29.037Z,26.78
2018-05-16T14:03:39.222Z,26.47
2018-05-16T14:04:49.070Z,26.24
2018-05-16T14:05:59.177Z,26.19
2018-05-16T14:07:09.267Z,25.99
2018-05-16T14:08:19.427Z,25.86
2018-05-16T14:09:28.984Z,25.44
2018-05-16T14:10:38.889Z,25.27
2018-05-16T14:11:48.993Z,24.96
2018-05-16T14:12:59.095Z,24.94
2018-05-16T14:14:09.177Z,25.01
2018-05-16T14:15:19.505Z,25
2018-05-16T14:16:29.806Z,25.02
2018-05-16T14:17:39.902Z,25.01
2018-05-16T14:18:49.755Z,24.93
2018-05-16T14:19:59.945Z,24.94
2018-05-16T14:21:09.983Z,24.86
2018-05-16T14:22:20.165Z,24.96
2018-05-16T14:23:29.710Z,25.02
2018-05-16T14:24:39.792Z,25.07
2018-05-16T14:25:49.963Z,25.15
2018-05-16T14:27:00.043Z,25.26
2018-05-16T14:28:09.873Z,25.27
2018-05-16T14:29:19.975Z,25.3
2018-05-16T14:30:30.059Z,25.33
2018-05-16T14:31:39.889Z,25.32
2018-05-16T14:32:49.961Z,25.3
2018-05-16T14:33:59.806Z,25.29
2018-05-16T14:35:09.415Z,25.15
2018-05-16T14:36:19.701Z,25.15
2018-05-16T14:37:29.818Z,25.14
2018-05-16T14:38:39.921Z,25.22
2018-05-16T14:39:50.012Z,25.19
2018-05-16T14:41:00.131Z,25.2
2018-05-16T14:42:10.227Z,25.17
2018-05-16T14:43:20.316Z,25.24
2018-05-16T14:44:30.146Z,25.11
2018-05-16T14:45:39.968Z,25.15
2018-05-16T14:46:50.091Z,25.14
2018-05-16T14:48:00.190Z,25.19
2018-05-16T14:49:10.275Z,25.19
2018-05-16T14:50:20.399Z,25.22
2018-05-16T14:51:30.494Z,25.17
2018-05-16T14:52:40.586Z,25.14
2018-05-16T14:53:50.674Z,25.19
2018-05-16T14:55:00.847Z,25.11
2018-05-16T14:56:10.958Z,25.17
2018-05-16T14:57:20.790Z,25.2
2018-05-16T14:58:30.887Z,25.26
2018-05-16T14:59:40.996Z,25.23
2018-05-16T15:00:50.820Z,25.17
2018-05-16T15:02:00.659Z,25.15
2018-05-16T15:03:10.484Z,24.75
2018-05-16T15:04:20.577Z,24.52
2018-05-16T15:05:30.666Z,24.4
2018-05-16T15:06:40.490Z,24.17
2018-05-16T15:07:50.598Z,24.17
2018-05-16T15:09:00.430Z,24.09
2018-05-16T15:10:10.526Z,23.96
2018-05-16T15:11:20.096Z,23.89
2018-05-16T15:12:30.199Z,23.92
2018-05-16T15:13:40.293Z,23.89
2018-05-16T15:14:50.303Z,23.85
2018-05-16T15:16:00.711Z,23.82
2018-05-16T15:17:10.808Z,23.7
2018-05-16T15:18:20.898Z,23.64
2018-05-16T15:19:31.010Z,23.56
2018-05-16T15:20:40.315Z,23.32
2018-05-16T15:21:50.404Z,23.15
2018-05-16T15:23:00.549Z,22.91
2018-05-16T15:24:10.733Z,22.86
2018-05-16T15:25:20.928Z,22.7
2018-05-16T15:26:30.792Z,22.7
2018-05-16T15:27:40.922Z,22.6
2018-05-16T15:28:51.065Z,22.57
2018-05-16T15:30:01.209Z,22.44
2018-05-16T15:31:11.307Z,22.46
2018-05-16T15:32:20.866Z,22.27
2018-05-16T15:33:30.976Z,22.23
2018-05-16T15:34:41.072Z,22.2
2018-05-16T15:35:51.179Z,22.07